createdAt,value
2023-05-16T00:00:25.477Z,10.9
2023-05-16T00:30:25.003Z,10.6
2023-05-16T01:00:10.328Z,10.8
2023-05-16T01:30:18.151Z,10.7
2023-05-16T02:00:18.191Z,10.7
2023-05-16T02:30:04.105Z,11
2023-05-16T03:00:25.591Z,10.9
2023-05-16T04:00:13.546Z,10.9
2023-05-16T04:30:28.651Z,11.2
2023-05-16T05:00:06.651Z,11.1
2023-05-16T05:30:23.060Z,11
2023-05-16T06:00:07.992Z,11
2023-05-16T06:30:29.216Z,10.8
2023-05-16T07:00:30.585Z,10.8
2023-05-16T07:30:30.468Z,11.3
2023-05-16T08:00:16.894Z,11.1
2023-05-16T08:30:18.644Z,11.1
2023-05-16T09:00:19.891Z,11.2
2023-05-16T09:30:18.744Z,11.1
2023-05-16T10:00:04.986Z,11
2023-05-16T10:30:26.626Z,10.9
2023-05-16T11:00:12.029Z,12.1
2023-05-16T11:30:27.898Z,12
2023-05-16T12:00:28.675Z,12.8
2023-05-16T12:30:05.888Z,11.7
2023-05-16T13:00:16.136Z,12.2
2023-05-16T13:30:01.804Z,12.5
2023-05-16T14:30:09.703Z,12.4
2023-05-16T15:00:24.853Z,14
2023-05-16T15:30:16.104Z,12.2
2023-05-16T16:00:17.583Z,10.3
2023-05-16T16:30:02.726Z,11.4
2023-05-16T17:00:03.492Z,11.4
2023-05-16T18:00:04.434Z,10.4
2023-05-16T18:30:13.188Z,10.9
2023-05-16T19:00:29.893Z,10
2023-05-16T19:30:21.713Z,9.1
2023-05-16T20:00:07.213Z,10.9
2023-05-16T20:30:22.602Z,9.7
2023-05-16T21:00:30.707Z,9.1
2023-05-16T21:30:15.229Z,8.8
2023-05-16T22:00:15.461Z,8.6
2023-05-16T22:30:11.018Z,8.7
2023-05-16T23:00:18.389Z,7
2023-05-16T23:30:04.371Z,8.4
